Time;durP1;ratioP1;P1;durP2;ratioP2;P2;SDS_P1;SDS_P2;PMS_P1;PMS_P2;Temp;Humidity;BMP_temperature;BMP_pressure;BME280_temperature;BME280_humidity;BME280_pressure;Samples;Min_cycle;Max_cycle;Signal;HPM_P1;HPM_P2
2024/04/01 00:00:05;;;;;;;1.60;0.60;;;10.70;99.90;;;;;;4212005;28;20715;-58
2024/04/01 00:02:06;;;;;;;0.50;0.50;;;10.70;99.90;;;;;;4212051;28;20173;-58
2024/04/01 00:04:06;;;;;;;1.10;0.63;;;10.70;99.90;;;;;;4211878;28;20195;-59
2024/04/01 00:06:07;;;;;;;0.60;0.60;;;10.60;99.90;;;;;;4211130;28;20255;-58
2024/04/01 00:08:07;;;;;;;0.50;0.50;;;10.60;99.90;;;;;;4210651;28;20188;-59
2024/04/01 00:10:08;;;;;;;0.50;0.50;;;10.60;99.90;;;;;;4212100;28;20272;-58
2024/04/01 00:12:09;;;;;;;0.70;0.40;;;10.60;99.90;;;;;;4210428;28;20177;-58
2024/04/01 00:14:10;;;;;;;0.37;0.37;;;10.60;99.90;;;;;;4212068;28;20626;-58
2024/04/01 00:16:10;;;;;;;0.40;0.40;;;10.50;99.90;;;;;;4209823;28;20188;-59
2024/04/01 00:18:11;;;;;;;1.53;0.50;;;10.50;99.90;;;;;;4211867;28;20173;-58
2024/04/01 00:20:12;;;;;;;0.83;0.50;;;10.50;99.90;;;;;;4211546;28;20184;-58
2024/04/01 00:22:12;;;;;;;0.50;0.50;;;10.50;99.90;;;;;;4211511;28;20191;-58
2024/04/01 00:24:13;;;;;;;1.13;0.60;;;10.50;99.90;;;;;;4212037;28;20626;-58
2024/04/01 00:26:13;;;;;;;2.00;0.67;;;10.50;99.90;;;;;;4211202;28;20177;-58
2024/04/01 00:28:14;;;;;;;0.60;0.50;;;10.50;99.90;;;;;;4211789;28;20235;-59
2024/04/01 00:30:15;;;;;;;0.50;0.40;;;10.40;99.90;;;;;;4211783;28;20645;-58
2024/04/01 00:32:15;;;;;;;0.57;0.57;;;10.40;99.90;;;;;;4211859;28;20181;-58
2024/04/01 00:34:16;;;;;;;0.87;0.77;;;10.30;99.90;;;;;;4211846;28;20192;-59
2024/04/01 00:36:16;;;;;;;0.80;0.60;;;10.30;99.90;;;;;;4210516;28;20576;-58
2024/04/01 00:38:17;;;;;;;0.93;0.57;;;10.30;99.90;;;;;;4211359;28;20177;-59
2024/04/01 00:40:17;;;;;;;0.90;0.60;;;10.30;99.90;;;;;;4211829;28;20587;-58
2024/04/01 00:42:18;;;;;;;0.77;0.70;;;10.20;99.90;;;;;;4211443;28;20196;-58
2024/04/01 00:44:18;;;;;;;1.33;0.40;;;10.20;99.90;;;;;;4211625;28;20183;-59
2024/04/01 00:46:20;;;;;;;1.03;0.60;;;10.20;99.90;;;;;;4211180;28;20184;-58
2024/04/01 00:48:21;;;;;;;0.97;0.67;;;10.20;99.90;;;;;;4211741;28;20260;-59
2024/04/01 00:50:24;;;;;;;1.33;0.90;;;10.20;99.90;;;;;;4212010;28;20188;-58
2024/04/01 00:52:27;;;;;;;1.00;0.73;;;10.20;99.90;;;;;;4210371;28;20657;-58
2024/04/01 00:54:27;;;;;;;0.93;0.70;;;10.20;99.90;;;;;;4211624;28;20177;-58
2024/04/01 00:56:29;;;;;;;0.70;0.60;;;10.20;99.90;;;;;;4211115;28;20207;-58
2024/04/01 00:58:30;;;;;;;1.27;0.63;;;10.10;99.90;;;;;;4211533;28;20311;-58
2024/04/01 01:00:32;;;;;;;0.93;0.60;;;10.10;99.90;;;;;;4211287;28;20197;-59
2024/04/01 01:02:32;;;;;;;0.93;0.70;;;10.10;99.90;;;;;;4211172;28;20215;-58
2024/04/01 01:04:36;;;;;;;0.30;0.30;;;10.10;99.90;;;;;;4211473;28;20234;-59
2024/04/01 01:06:38;;;;;;;2.07;0.60;;;10.00;99.90;;;;;;4210991;28;20204;-58
2024/04/01 01:08:39;;;;;;;0.90;0.60;;;10.00;99.90;;;;;;4211649;28;20564;-58
2024/04/01 01:10:40;;;;;;;1.50;0.70;;;10.00;99.90;;;;;;4211364;28;20173;-58
2024/04/01 01:12:41;;;;;;;0.67;0.67;;;10.00;99.90;;;;;;4211600;28;20183;-58
2024/04/01 01:14:41;;;;;;;0.63;0.53;;;10.00;99.90;;;;;;4211452;28;20539;-58
2024/04/01 01:16:42;;;;;;;0.80;0.60;;;10.00;99.90;;;;;;4211031;28;20206;-58
2024/04/01 01:18:43;;;;;;;1.17;0.63;;;10.00;99.90;;;;;;4211159;28;20226;-58
2024/04/01 01:20:43;;;;;;;1.03;0.60;;;10.00;99.90;;;;;;4211388;28;20181;-59
2024/04/01 01:22:44;;;;;;;1.70;0.50;;;10.00;99.90;;;;;;4211377;28;20229;-59
2024/04/01 01:24:44;;;;;;;1.13;0.70;;;10.00;99.90;;;;;;4211557;28;20177;-58
2024/04/01 01:26:45;;;;;;;1.30;0.60;;;10.00;99.90;;;;;;4210458;28;20668;-58
2024/04/01 01:28:50;;;;;;;0.63;0.60;;;10.00;99.90;;;;;;4211425;28;20184;-58
2024/04/01 01:30:50;;;;;;;1.63;0.90;;;9.90;99.90;;;;;;4211600;28;20666;-58
2024/04/01 01:32:54;;;;;;;0.63;0.50;;;9.90;99.90;;;;;;4213077;28;20169;-58
2024/04/01 01:34:55;;;;;;;1.40;0.80;;;9.80;99.90;;;;;;4214048;28;20180;-58
2024/04/01 01:36:56;;;;;;;1.33;0.70;;;9.80;99.90;;;;;;4200408;28;20643;-59
2024/04/01 01:38:57;;;;;;;1.03;0.93;;;9.80;99.90;;;;;;4214239;28;20529;-58
2024/04/01 01:40:58;;;;;;;2.13;0.83;;;9.80;99.90;;;;;;4214029;28;20203;-58
2024/04/01 01:42:58;;;;;;;1.60;1.00;;;9.70;99.90;;;;;;4213894;28;20660;-58
2024/04/01 01:44:59;;;;;;;1.43;1.00;;;9.70;99.90;;;;;;4214008;28;20188;-59
2024/04/01 01:47:00;;;;;;;1.67;0.80;;;9.70;99.90;;;;;;4213508;28;20196;-58
2024/04/01 01:49:00;;;;;;;0.80;0.80;;;9.70;99.90;;;;;;4214216;28;20183;-57
2024/04/01 01:51:01;;;;;;;1.70;1.27;;;9.70;99.90;;;;;;4214538;28;20179;-57
2024/04/01 01:53:01;;;;;;;1.13;0.80;;;9.70;99.90;;;;;;4214084;28;20418;-57
2024/04/01 01:55:03;;;;;;;0.93;0.67;;;9.70;99.90;;;;;;4214094;28;20180;-57
2024/04/01 01:57:04;;;;;;;2.40;0.93;;;9.70;99.90;;;;;;4213399;28;20184;-57
2024/04/01 01:59:04;;;;;;;2.50;0.90;;;9.70;99.90;;;;;;4213837;28;20198;-57
2024/04/01 02:01:05;;;;;;;1.73;1.00;;;9.70;99.90;;;;;;4214009;28;20180;-57
2024/04/01 02:03:06;;;;;;;1.27;1.10;;;9.70;99.90;;;;;;4213755;28;20532;-57
2024/04/01 02:05:07;;;;;;;1.63;1.00;;;9.70;99.90;;;;;;4213959;28;20287;-57
2024/04/01 02:07:08;;;;;;;1.10;0.97;;;9.70;99.90;;;;;;4213222;28;20200;-57
2024/04/01 02:09:10;;;;;;;2.00;1.20;;;9.70;99.90;;;;;;4213912;28;20185;-57
2024/04/01 02:11:12;;;;;;;2.07;1.17;;;9.70;99.90;;;;;;4213677;28;20222;-57
2024/04/01 02:13:14;;;;;;;2.90;1.50;;;9.70;99.90;;;;;;4213570;28;20171;-57
2024/04/01 02:15:18;;;;;;;2.17;1.33;;;9.70;99.90;;;;;;4214062;28;20196;-57
2024/04/01 02:17:19;;;;;;;1.47;1.30;;;9.70;99.90;;;;;;4212876;28;20249;-57
2024/04/01 02:19:19;;;;;;;1.47;1.00;;;9.70;99.90;;;;;;4213481;28;20196;-57
2024/04/01 02:21:20;;;;;;;1.47;1.10;;;9.70;99.90;;;;;;4213533;28;20204;-57
2024/04/01 02:23:20;;;;;;;1.70;1.10;;;9.60;99.90;;;;;;4213534;28;20177;-57
2024/04/01 02:25:21;;;;;;;1.27;1.00;;;9.60;99.90;;;;;;4213508;28;20192;-57
2024/04/01 02:27:22;;;;;;;1.20;1.10;;;9.60;99.90;;;;;;4212768;28;20287;-57
2024/04/01 02:29:23;;;;;;;1.10;1.00;;;9.60;99.90;;;;;;4213410;28;20169;-57
2024/04/01 02:31:23;;;;;;;1.30;0.90;;;9.60;99.90;;;;;;4213415;28;20586;-57
2024/04/01 02:33:24;;;;;;;2.63;1.00;;;9.60;99.90;;;;;;4213180;28;20232;-57
2024/04/01 02:35:25;;;;;;;1.63;0.90;;;9.60;99.90;;;;;;4212622;28;20165;-57
2024/04/01 02:37:25;;;;;;;1.03;0.80;;;9.60;99.90;;;;;;4213411;28;20184;-57
2024/04/01 02:39:26;;;;;;;1.23;0.93;;;9.70;99.90;;;;;;4213344;28;20184;-57
2024/04/01 02:41:26;;;;;;;0.60;0.57;;;9.70;99.90;;;;;;4213374;28;20522;-57
2024/04/01 02:43:27;;;;;;;0.70;0.70;;;9.70;99.90;;;;;;4212751;28;20183;-57
2024/04/01 02:45:29;;;;;;;0.70;0.50;;;9.70;99.90;;;;;;4212569;28;20181;-57
2024/04/01 02:47:30;;;;;;;0.70;0.70;;;9.70;99.90;;;;;;4213346;28;20197;-57
2024/04/01 02:49:30;;;;;;;1.00;0.90;;;9.70;99.90;;;;;;4212866;28;20241;-57
2024/04/01 02:51:31;;;;;;;1.07;0.63;;;9.80;99.90;;;;;;4213253;28;20647;-57
2024/04/01 02:53:32;;;;;;;1.40;0.60;;;9.80;99.90;;;;;;4212944;28;20271;-57
2024/04/01 02:55:32;;;;;;;1.17;0.60;;;9.80;99.90;;;;;;4212574;28;20177;-57
2024/04/01 02:57:33;;;;;;;0.63;0.63;;;9.80;99.90;;;;;;4213296;28;20180;-57
2024/04/01 02:59:34;;;;;;;0.70;0.60;;;9.90;99.90;;;;;;4212505;28;20653;-57
2024/04/01 03:01:34;;;;;;;0.70;0.60;;;9.80;99.90;;;;;;4213064;28;20188;-57
2024/04/01 03:03:35;;;;;;;0.87;0.57;;;9.90;99.90;;;;;;4212836;28;20191;-57
2024/04/01 03:05:38;;;;;;;0.60;0.57;;;9.90;99.90;;;;;;4212051;28;20391;-58
2024/04/01 03:07:39;;;;;;;0.80;0.70;;;10.00;99.90;;;;;;4212580;28;20614;-57
2024/04/01 03:09:40;;;;;;;1.00;0.67;;;10.00;99.90;;;;;;4211357;28;20173;-57
2024/04/01 03:11:40;;;;;;;0.37;0.37;;;10.10;99.90;;;;;;4205762;28;20179;-57
2024/04/01 03:13:41;;;;;;;0.43;0.40;;;10.10;99.90;;;;;;4212483;28;20274;-57
2024/04/01 03:15:44;;;;;;;1.23;0.50;;;10.00;99.90;;;;;;4212017;28;20177;-57
2024/04/01 03:17:45;;;;;;;0.43;0.43;;;10.00;99.90;;;;;;4212652;28;20623;-57
2024/04/01 03:19:46;;;;;;;0.70;0.50;;;9.90;99.90;;;;;;4212572;28;20222;-57
2024/04/01 03:21:46;;;;;;;0.77;0.60;;;9.90;99.90;;;;;;4212726;28;20672;-57
2024/04/01 03:23:48;;;;;;;0.40;0.40;;;9.90;99.90;;;;;;4212336;28;20180;-61
2024/04/01 03:25:50;;;;;;;1.20;0.50;;;9.90;99.90;;;;;;4211785;28;20172;-59
2024/04/01 03:27:51;;;;;;;0.63;0.40;;;9.90;99.90;;;;;;4212266;28;20654;-59
2024/04/01 03:29:51;;;;;;;0.47;0.47;;;10.00;99.90;;;;;;4212620;28;20233;-59
2024/04/01 03:31:52;;;;;;;0.60;0.60;;;10.00;99.90;;;;;;4212359;28;20560;-60
2024/04/01 03:33:55;;;;;;;1.13;0.40;;;10.10;99.90;;;;;;4212241;28;20176;-57
2024/04/01 03:35:56;;;;;;;1.33;0.50;;;10.20;99.90;;;;;;4211457;28;20173;-57
2024/04/01 03:37:57;;;;;;;0.50;0.43;;;10.20;99.90;;;;;;4212719;28;20192;-57
2024/04/01 03:39:57;;;;;;;0.40;0.40;;;10.30;99.90;;;;;;4212356;28;20177;-57
2024/04/01 03:41:58;;;;;;;0.40;0.37;;;10.40;99.90;;;;;;4206695;28;20188;-57
2024/04/01 03:43:58;;;;;;;0.40;0.40;;;10.40;99.90;;;;;;4215249;28;20206;-57
2024/04/01 03:46:02;;;;;;;0.40;0.40;;;10.40;99.90;;;;;;4211500;28;20730;-57
2024/04/01 03:48:05;;;;;;;0.73;0.60;;;10.40;99.90;;;;;;4211974;28;20208;-57
2024/04/01 03:50:06;;;;;;;0.40;0.40;;;10.40;99.90;;;;;;4212083;28;20173;-57
2024/04/01 03:52:06;;;;;;;0.53;0.40;;;10.50;99.90;;;;;;4212293;28;20221;-57
2024/04/01 03:54:07;;;;;;;0.40;0.40;;;10.50;99.90;;;;;;4211817;28;20630;-57
2024/04/01 03:56:09;;;;;;;0.40;0.40;;;10.60;99.90;;;;;;4211150;28;20181;-57
2024/04/01 03:58:10;;;;;;;0.40;0.40;;;10.60;99.90;;;;;;4212005;28;20593;-57
2024/04/01 04:00:12;;;;;;;0.40;0.40;;;10.60;99.90;;;;;;4210887;28;20238;-57
2024/04/01 04:02:12;;;;;;;0.70;0.40;;;10.60;99.90;;;;;;4212131;28;20683;-57
2024/04/01 04:04:14;;;;;;;0.40;0.40;;;10.60;99.90;;;;;;4211672;28;20226;-57
2024/04/01 04:06:14;;;;;;;0.40;0.40;;;10.60;99.90;;;;;;4211392;28;20180;-57
2024/04/01 04:08:15;;;;;;;0.80;0.57;;;10.60;99.90;;;;;;4211830;28;20630;-57
2024/04/01 04:10:15;;;;;;;0.40;0.40;;;10.60;99.90;;;;;;4212114;28;20224;-57
2024/04/01 04:12:16;;;;;;;0.50;0.40;;;10.60;99.90;;;;;;4210574;28;20652;-57
2024/04/01 04:14:18;;;;;;;0.93;0.60;;;10.60;99.90;;;;;;4211733;28;20684;-57
2024/04/01 04:16:18;;;;;;;0.33;0.33;;;10.50;99.90;;;;;;4211261;28;20669;-57
2024/04/01 04:18:19;;;;;;;0.57;0.40;;;10.50;99.90;;;;;;4211834;28;20265;-57
2024/04/01 04:20:19;;;;;;;1.23;0.40;;;10.50;99.90;;;;;;4211865;28;20206;-57
2024/04/01 04:22:21;;;;;;;0.50;0.50;;;10.50;99.90;;;;;;4211939;28;20226;-57
2024/04/01 04:24:24;;;;;;;1.40;0.30;;;10.50;99.90;;;;;;4212003;28;20187;-57
2024/04/01 04:26:25;;;;;;;0.33;0.33;;;10.50;99.90;;;;;;4211541;28;20180;-58
2024/04/01 04:28:26;;;;;;;0.30;0.30;;;10.50;99.90;;;;;;4211503;28;20176;-57
2024/04/01 04:30:26;;;;;;;0.30;0.30;;;10.50;99.90;;;;;;4210505;28;20208;-57
2024/04/01 04:32:27;;;;;;;0.27;0.23;;;10.50;99.90;;;;;;4211816;28;20171;-57
2024/04/01 04:34:27;;;;;;;0.40;0.40;;;10.50;99.90;;;;;;4212151;28;20649;-57
2024/04/01 04:36:28;;;;;;;1.00;0.70;;;10.40;99.90;;;;;;4210513;28;20183;-58
2024/04/01 04:38:28;;;;;;;0.70;0.60;;;10.40;99.90;;;;;;4211556;28;20192;-57
2024/04/01 04:40:29;;;;;;;0.87;0.60;;;10.40;99.90;;;;;;4211821;28;20507;-57
2024/04/01 04:42:30;;;;;;;1.07;0.70;;;10.30;99.90;;;;;;4211635;28;20204;-57
2024/04/01 04:44:32;;;;;;;1.87;0.70;;;10.30;99.90;;;;;;4210036;28;20572;-57
2024/04/01 04:46:33;;;;;;;0.73;0.50;;;10.30;99.90;;;;;;4211031;28;20275;-57
2024/04/01 04:48:33;;;;;;;0.63;0.53;;;10.30;99.90;;;;;;4211700;28;20525;-57
2024/04/01 04:50:34;;;;;;;0.67;0.67;;;10.30;99.90;;;;;;4211597;28;20177;-57
2024/04/01 04:52:34;;;;;;;0.83;0.70;;;10.30;99.90;;;;;;4211485;28;20263;-57
2024/04/01 04:54:35;;;;;;;0.97;0.60;;;10.30;99.90;;;;;;4211645;28;20188;-57
2024/04/01 04:56:36;;;;;;;0.60;0.60;;;10.30;99.90;;;;;;4210854;28;20180;-57
2024/04/01 04:58:37;;;;;;;0.80;0.53;;;10.30;99.90;;;;;;4211422;28;20176;-57
2024/04/01 05:00:37;;;;;;;0.90;0.70;;;10.30;99.90;;;;;;4211530;28;20224;-57
2024/04/01 05:02:38;;;;;;;0.70;0.70;;;10.30;99.90;;;;;;4211480;28;20173;-57
2024/04/01 05:04:38;;;;;;;0.60;0.53;;;10.30;99.90;;;;;;4211791;28;20630;-57
2024/04/01 05:06:40;;;;;;;1.57;0.70;;;10.40;99.90;;;;;;4212554;28;20197;-57
2024/04/01 05:08:41;;;;;;;1.00;0.70;;;10.40;99.90;;;;;;4214635;28;20195;-57
2024/04/01 05:10:43;;;;;;;0.50;0.50;;;10.40;99.90;;;;;;4206274;28;20182;-57
2024/04/01 05:12:44;;;;;;;0.60;0.60;;;10.40;99.90;;;;;;4214647;28;20232;-57
2024/04/01 05:14:44;;;;;;;0.70;0.70;;;10.40;99.90;;;;;;4214493;28;20199;-57
2024/04/01 05:16:45;;;;;;;1.27;0.70;;;10.40;99.90;;;;;;4214062;28;20619;-57
2024/04/01 05:18:46;;;;;;;0.67;0.67;;;10.40;99.90;;;;;;4214216;28;20260;-57
2024/04/01 05:20:47;;;;;;;0.50;0.50;;;10.50;99.90;;;;;;4214871;28;20215;-56
2024/04/01 05:22:47;;;;;;;1.00;0.60;;;10.50;99.90;;;;;;4214554;28;20537;-57
2024/04/01 05:24:48;;;;;;;0.93;0.63;;;10.50;99.90;;;;;;4214504;28;20181;-57
2024/04/01 05:26:48;;;;;;;0.77;0.70;;;10.50;99.90;;;;;;4213673;28;20204;-56
2024/04/01 05:28:49;;;;;;;0.93;0.60;;;10.50;99.90;;;;;;4212878;28;20173;-57
2024/04/01 05:30:53;;;;;;;0.70;0.60;;;10.50;99.90;;;;;;4214353;28;20511;-57
2024/04/01 05:32:54;;;;;;;0.47;0.47;;;10.50;99.90;;;;;;4214324;28;20168;-56
2024/04/01 05:34:54;;;;;;;0.77;0.77;;;10.50;99.90;;;;;;4213952;28;20260;-56
2024/04/01 05:36:55;;;;;;;0.50;0.40;;;10.50;99.90;;;;;;4213671;28;20180;-56
2024/04/01 05:38:55;;;;;;;0.60;0.40;;;10.50;99.90;;;;;;4214073;28;20181;-57
2024/04/01 05:40:56;;;;;;;1.03;0.63;;;10.50;99.90;;;;;;4211594;28;20209;-56
2024/04/01 05:42:56;;;;;;;0.67;0.67;;;10.50;99.90;;;;;;4210882;28;20199;-57
2024/04/01 05:44:57;;;;;;;0.87;0.73;;;10.50;99.90;;;;;;4214439;28;20187;-56
2024/04/01 05:46:58;;;;;;;0.60;0.60;;;10.40;99.90;;;;;;4211996;28;20184;-57
2024/04/01 05:48:58;;;;;;;0.77;0.70;;;10.40;99.90;;;;;;4214083;28;20172;-56
2024/04/01 05:50:59;;;;;;;0.87;0.60;;;10.40;99.90;;;;;;4213981;28;20271;-57
2024/04/01 05:52:59;;;;;;;0.50;0.50;;;10.40;99.90;;;;;;4213709;28;20191;-56
2024/04/01 05:55:02;;;;;;;0.70;0.70;;;10.40;99.90;;;;;;4214159;28;20255;-57
2024/04/01 05:57:02;;;;;;;1.03;0.67;;;10.40;99.90;;;;;;4213686;28;20200;-57
2024/04/01 05:59:03;;;;;;;1.13;0.63;;;10.40;99.90;;;;;;4213705;28;20196;-57
2024/04/01 06:01:04;;;;;;;0.83;0.80;;;10.40;99.90;;;;;;4213690;28;20189;-57
2024/04/01 06:03:05;;;;;;;1.20;0.60;;;10.40;99.90;;;;;;4213820;28;20219;-57
2024/04/01 06:05:06;;;;;;;0.73;0.70;;;10.40;99.90;;;;;;4213523;28;20558;-57
2024/04/01 06:07:06;;;;;;;1.40;0.80;;;10.40;99.90;;;;;;4214014;28;20207;-57
2024/04/01 06:09:07;;;;;;;2.20;0.73;;;10.30;99.90;;;;;;4213375;28;20238;-57
2024/04/01 06:11:07;;;;;;;0.97;0.57;;;10.30;99.90;;;;;;4213829;28;20267;-57
2024/04/01 06:13:08;;;;;;;0.67;0.60;;;10.30;99.90;;;;;;4213428;28;20196;-57
2024/04/01 06:15:09;;;;;;;0.83;0.80;;;10.30;99.90;;;;;;4213189;28;20176;-57
2024/04/01 06:17:09;;;;;;;0.73;0.63;;;10.30;99.90;;;;;;4213609;28;20204;-57
2024/04/01 06:19:10;;;;;;;1.33;0.57;;;10.30;99.90;;;;;;4212953;28;20226;-57
2024/04/01 06:21:10;;;;;;;1.13;0.90;;;10.30;99.90;;;;;;4213435;28;20215;-56
2024/04/01 06:23:11;;;;;;;0.70;0.70;;;10.30;99.90;;;;;;4213231;28;20233;-57
2024/04/01 06:25:11;;;;;;;1.03;0.70;;;10.30;99.90;;;;;;4212941;28;20246;-56
2024/04/01 06:27:12;;;;;;;1.77;0.80;;;10.30;99.90;;;;;;4213730;28;20236;-57
2024/04/01 06:29:13;;;;;;;0.80;0.80;;;10.20;99.90;;;;;;4210784;28;20184;-56
2024/04/01 06:31:17;;;;;;;0.77;0.70;;;10.20;99.90;;;;;;4213375;28;20264;-56
2024/04/01 06:33:18;;;;;;;0.90;0.70;;;10.20;99.90;;;;;;4212978;28;20172;-56
2024/04/01 06:35:18;;;;;;;0.83;0.77;;;10.20;99.90;;;;;;4212344;28;20537;-56
2024/04/01 06:37:19;;;;;;;1.60;1.17;;;10.20;99.90;;;;;;4213083;28;20525;-56
2024/04/01 06:39:19;;;;;;;2.30;0.90;;;10.20;99.90;;;;;;4213160;28;20196;-56
2024/04/01 06:41:20;;;;;;;0.77;0.77;;;10.20;99.90;;;;;;4213109;28;20264;-56
2024/04/01 06:43:20;;;;;;;1.00;0.90;;;10.20;99.90;;;;;;4212940;28;20200;-56
2024/04/01 06:45:21;;;;;;;1.10;0.90;;;10.20;99.90;;;;;;4212417;28;20188;-56
2024/04/01 06:47:21;;;;;;;1.57;1.00;;;10.20;99.90;;;;;;4213296;28;20205;-56
2024/04/01 06:49:22;;;;;;;0.80;0.80;;;10.20;99.90;;;;;;4213122;28;20177;-56
2024/04/01 06:51:23;;;;;;;1.20;1.10;;;10.20;99.90;;;;;;4211654;28;20227;-56
2024/04/01 06:53:24;;;;;;;1.21;0.82;;;10.20;99.90;;;;;;3860072;27;10001194;-56
2024/04/01 06:55:24;;;;;;;0.93;0.90;;;10.20;99.90;;;;;;4202140;28;20208;-56
2024/04/01 06:57:25;;;;;;;0.97;0.97;;;10.20;99.90;;;;;;4210024;28;20563;-56
2024/04/01 06:59:25;;;;;;;2.40;1.10;;;10.20;99.90;;;;;;4210260;28;20208;-56
2024/04/01 07:01:26;;;;;;;1.93;1.00;;;10.20;99.90;;;;;;4210318;28;20191;-56
2024/04/01 07:03:26;;;;;;;1.23;1.00;;;10.20;99.90;;;;;;4208723;28;20173;-56
2024/04/01 07:05:28;;;;;;;1.30;1.20;;;10.20;99.90;;;;;;4200663;28;20687;-56
2024/04/01 07:07:28;;;;;;;1.57;1.10;;;10.20;99.90;;;;;;4204080;28;20227;-56
2024/04/01 07:09:29;;;;;;;1.33;1.10;;;10.20;99.90;;;;;;4205791;28;20528;-56
2024/04/01 07:11:30;;;;;;;1.40;1.13;;;10.20;99.90;;;;;;4208505;28;20283;-56
2024/04/01 07:13:30;;;;;;;1.40;1.23;;;10.20;99.90;;;;;;4209728;28;20177;-56
2024/04/01 07:15:31;;;;;;;1.10;1.00;;;10.30;99.90;;;;;;4206209;28;20710;-56
2024/04/01 07:17:31;;;;;;;1.33;1.10;;;10.30;99.90;;;;;;4209202;28;20216;-56
2024/04/01 07:19:32;;;;;;;1.10;1.00;;;10.30;99.90;;;;;;4209755;28;20267;-56
2024/04/01 07:21:33;;;;;;;1.30;1.20;;;10.40;99.90;;;;;;4208346;28;20580;-56
2024/04/01 07:23:33;;;;;;;1.23;1.10;;;10.40;99.90;;;;;;4207943;28;20564;-56
2024/04/01 07:25:34;;;;;;;1.70;1.10;;;10.40;99.90;;;;;;4208234;28;20704;-56
2024/04/01 07:27:34;;;;;;;1.20;1.10;;;10.30;99.90;;;;;;4209139;28;20462;-56
2024/04/01 07:29:35;;;;;;;1.53;1.17;;;10.40;99.90;;;;;;4208612;28;20191;-56
2024/04/01 07:31:35;;;;;;;1.20;1.10;;;10.30;99.90;;;;;;4209244;28;20184;-56
2024/04/01 07:33:36;;;;;;;1.60;1.10;;;10.40;99.90;;;;;;4197114;28;20706;-56
2024/04/01 07:35:36;;;;;;;1.20;1.10;;;10.30;99.90;;;;;;4208421;28;20188;-56
2024/04/01 07:37:37;;;;;;;2.03;1.10;;;10.30;99.90;;;;;;4209489;28;20180;-56
2024/04/01 07:39:38;;;;;;;1.20;1.10;;;10.40;99.90;;;;;;4197561;28;20272;-56
2024/04/01 07:41:38;;;;;;;2.50;1.30;;;10.30;99.90;;;;;;4195673;28;20189;-56
2024/04/01 07:43:39;;;;;;;1.40;1.27;;;10.30;99.90;;;;;;4205724;28;20655;-56
2024/04/01 07:45:39;;;;;;;1.37;1.23;;;10.30;99.90;;;;;;4201150;28;20489;-56
2024/04/01 07:47:40;;;;;;;1.20;1.10;;;10.20;99.90;;;;;;4209319;28;20196;-56
2024/04/01 07:49:41;;;;;;;1.40;1.30;;;10.20;99.90;;;;;;4199442;28;20177;-56
2024/04/01 07:51:41;;;;;;;1.63;1.43;;;10.20;99.90;;;;;;4208285;28;20180;-56
2024/04/01 07:53:42;;;;;;;1.50;1.40;;;10.20;99.90;;;;;;4201040;28;20177;-56
2024/04/01 07:55:42;;;;;;;1.53;1.43;;;10.20;99.90;;;;;;4209650;28;20823;-56
2024/04/01 07:57:43;;;;;;;3.03;1.50;;;10.20;99.90;;;;;;4210363;28;20180;-56
2024/04/01 07:59:44;;;;;;;1.70;1.60;;;10.20;99.90;;;;;;4210795;28;20196;-56
2024/04/01 08:01:45;;;;;;;1.97;1.43;;;10.20;99.90;;;;;;4211472;28;20189;-56
2024/04/01 08:03:45;;;;;;;1.90;1.70;;;10.20;99.90;;;;;;4212160;28;20614;-56
2024/04/01 08:05:46;;;;;;;1.80;1.70;;;10.20;99.90;;;;;;4211262;28;20180;-56
2024/04/01 08:07:47;;;;;;;1.63;1.53;;;10.20;99.90;;;;;;4211905;28;20200;-56
2024/04/01 08:09:48;;;;;;;1.77;1.67;;;10.20;99.90;;;;;;4212402;28;20375;-56
2024/04/01 08:11:49;;;;;;;2.30;2.10;;;10.20;99.90;;;;;;4212269;28;20194;-56
2024/04/01 08:13:50;;;;;;;2.10;1.90;;;10.20;99.90;;;;;;4211860;28;20168;-56
2024/04/01 08:16:02;;;;;;;3.70;2.17;;;10.20;99.90;;;;;;4211035;28;20576;-56
2024/04/01 08:18:02;;;;;;;4.10;2.17;;;10.20;99.90;;;;;;4210495;28;20176;-56
2024/04/01 08:20:05;;;;;;;3.20;2.00;;;10.20;99.90;;;;;;4212011;28;20183;-56
2024/04/01 08:22:06;;;;;;;1.80;1.70;;;10.30;99.90;;;;;;4198649;28;20692;-56
2024/04/01 08:24:07;;;;;;;1.93;1.70;;;10.30;99.90;;;;;;4209990;28;20245;-56
2024/04/01 08:26:07;;;;;;;2.30;1.90;;;10.30;99.90;;;;;;4211331;28;20197;-56
2024/04/01 08:28:08;;;;;;;1.90;1.80;;;10.30;99.90;;;;;;4211358;28;20280;-56
2024/04/01 08:30:09;;;;;;;1.80;1.70;;;10.40;99.90;;;;;;4211523;28;20181;-56
2024/04/01 08:32:09;;;;;;;2.33;1.70;;;10.40;99.90;;;;;;4212134;28;20184;-56
2024/04/01 08:34:10;;;;;;;1.70;1.60;;;10.40;99.90;;;;;;4211781;28;20215;-56
2024/04/01 08:36:11;;;;;;;1.70;1.60;;;10.40;99.90;;;;;;4210701;28;20175;-56
2024/04/01 08:38:11;;;;;;;2.37;1.90;;;10.40;99.90;;;;;;4211388;28;20749;-56
2024/04/01 08:40:12;;;;;;;1.70;1.60;;;10.40;99.90;;;;;;4211927;28;20180;-56
2024/04/01 08:42:17;;;;;;;1.93;1.67;;;10.40;99.90;;;;;;4214564;28;20180;-57
2024/04/01 08:44:20;;;;;;;1.97;1.73;;;10.40;99.90;;;;;;4215044;28;20184;-56
2024/04/01 08:46:21;;;;;;;2.43;1.53;;;10.40;99.90;;;;;;4212895;28;20180;-56
2024/04/01 08:48:26;;;;;;;1.73;1.63;;;10.40;99.90;;;;;;4214941;28;20200;-56
2024/04/01 08:50:35;;;;;;;2.00;1.53;;;10.40;99.90;;;;;;4215139;28;20180;-56
2024/04/01 08:52:52;;;;;;;2.20;1.60;;;10.40;99.90;;;;;;4215323;28;20176;-56
2024/04/01 08:54:53;;;;;;;2.30;1.77;;;10.40;99.90;;;;;;4202357;28;20179;-56
2024/04/01 08:56:54;;;;;;;1.93;1.60;;;10.40;99.90;;;;;;4215060;28;20208;-56
2024/04/01 08:58:56;;;;;;;1.93;1.73;;;10.40;99.90;;;;;;4214703;28;20181;-56
2024/04/01 09:00:56;;;;;;;2.80;1.80;;;10.30;99.90;;;;;;4213385;28;20191;-57
2024/04/01 09:02:57;;;;;;;3.80;2.00;;;10.40;99.90;;;;;;4214774;28;20184;-57
2024/04/01 09:04:58;;;;;;;1.80;1.70;;;10.40;99.90;;;;;;4214218;28;20184;-57
2024/04/01 09:06:58;;;;;;;2.47;1.70;;;10.40;99.90;;;;;;4214769;28;20200;-57
2024/04/01 09:08:59;;;;;;;1.70;1.50;;;10.40;99.90;;;;;;4214507;28;20185;-57
2024/04/01 09:10:59;;;;;;;1.60;1.50;;;10.30;99.90;;;;;;4214483;28;20657;-57
2024/04/01 09:13:03;;;;;;;3.73;1.57;;;10.40;99.90;;;;;;4214591;28;20670;-57
2024/04/01 09:15:11;;;;;;;1.87;1.70;;;10.40;99.90;;;;;;4214147;28;20180;-57
2024/04/01 09:17:12;;;;;;;1.67;1.57;;;10.50;99.90;;;;;;4214704;28;20210;-57
2024/04/01 09:19:12;;;;;;;2.13;1.60;;;10.40;99.90;;;;;;4214501;28;20559;-57
2024/04/01 09:21:13;;;;;;;1.63;1.50;;;10.60;99.90;;;;;;4214942;28;20703;-57
2024/04/01 09:23:13;;;;;;;2.13;1.53;;;10.60;99.90;;;;;;4214442;28;20173;-58
2024/04/01 09:25:14;;;;;;;1.87;1.50;;;10.60;99.90;;;;;;4213737;28;20184;-58
2024/04/01 09:27:14;;;;;;;1.37;1.27;;;10.70;99.90;;;;;;4209807;28;20229;-57
2024/04/01 09:29:15;;;;;;;1.90;1.20;;;10.70;99.90;;;;;;4205426;28;20192;-57
2024/04/01 09:31:18;;;;;;;1.93;1.30;;;10.80;99.90;;;;;;4214735;28;20173;-57
2024/04/01 09:33:18;;;;;;;1.60;1.50;;;10.80;99.90;;;;;;4214125;28;20226;-58
2024/04/01 09:35:25;;;;;;;2.13;1.53;;;10.80;99.90;;;;;;4213471;28;20176;-57
2024/04/01 09:37:25;;;;;;;1.97;1.50;;;10.90;99.90;;;;;;4214259;28;20180;-57
2024/04/01 09:39:26;;;;;;;1.60;1.30;;;11.00;99.90;;;;;;4214230;28;20177;-57
2024/04/01 09:41:28;;;;;;;1.37;1.20;;;11.00;99.90;;;;;;4214201;28;20612;-57
2024/04/01 09:43:32;;;;;;;2.07;1.40;;;11.00;99.90;;;;;;4214196;28;20309;-57
2024/04/01 09:45:37;;;;;;;1.37;1.10;;;11.10;99.90;;;;;;4213642;28;20184;-57
2024/04/01 09:47:37;;;;;;;1.90;1.30;;;11.10;99.90;;;;;;4214018;28;20201;-57
2024/04/01 09:49:40;;;;;;;2.00;1.33;;;11.10;99.90;;;;;;4213871;28;20254;-57
2024/04/01 09:51:42;;;;;;;1.97;1.50;;;11.10;99.90;;;;;;4214091;28;20180;-58
2024/04/01 09:53:42;;;;;;;2.73;1.77;;;11.20;99.90;;;;;;4212930;28;20354;-57
2024/04/01 09:56:22;;;;;;;3.37;1.50;;;11.30;99.90;;;;;;4213565;28;20553;-57
2024/04/01 09:58:47;;;;;;;1.63;1.00;;;11.30;99.90;;;;;;4188525;28;20180;-57
2024/04/01 10:01:00;;;;;;;2.13;1.30;;;11.30;99.90;;;;;;4214067;28;20191;-57
2024/04/01 10:03:40;;;;;;;2.43;1.20;;;11.30;99.90;;;;;;4213816;28;20187;-57
2024/04/01 10:06:26;;;;;;;1.80;1.20;;;11.30;99.90;;;;;;4208674;28;20219;-57
2024/04/01 10:08:50;;;;;;;1.63;1.33;;;11.30;99.90;;;;;;4202775;28;20292;-57
2024/04/01 10:11:29;;;;;;;1.87;1.20;;;11.30;99.90;;;;;;4208897;28;20195;-57
2024/04/01 10:13:45;;;;;;;2.13;1.30;;;11.20;99.90;;;;;;4154010;28;20337;-57
2024/04/01 10:15:54;;;;;;;1.63;1.30;;;11.20;99.90;;;;;;4157623;28;20178;-57
2024/04/01 10:17:57;;;;;;;2.87;1.60;;;11.20;99.90;;;;;;4150656;28;20344;-57
2024/04/01 10:20:25;;;;;;;3.00;1.20;;;11.10;99.90;;;;;;4155171;28;20225;-57
2024/04/01 10:22:56;;;;;;;2.87;1.30;;;11.10;99.90;;;;;;4152804;28;20198;-57
2024/04/01 10:25:38;;;;;;;2.77;1.40;;;11.00;99.90;;;;;;4156736;28;20817;-57
2024/04/01 10:28:27;;;;;;;3.27;1.40;;;11.00;99.90;;;;;;4153909;28;20214;-57
2024/04/01 10:30:37;;;;;;;2.30;1.30;;;11.00;99.70;;;;;;4079554;29;20812;-57
2024/04/01 10:33:11;;;;;;;3.17;1.30;;;10.90;99.90;;;;;;4075691;29;20584;-57
2024/04/01 10:35:39;;;;;;;2.10;1.60;;;10.90;99.90;;;;;;4077044;29;20587;-57
2024/04/01 10:38:01;;;;;;;2.07;1.77;;;10.90;92.00;;;;;;4075570;29;20174;-57